createdAt,value
2016-09-24T00:00:21.682Z,0
2016-09-24T00:01:21.735Z,0
2016-09-24T00:02:22.067Z,0
2016-09-24T00:03:22.743Z,0
2016-09-24T00:04:23.515Z,0
2016-09-24T00:05:23.733Z,0
2016-09-24T00:06:24.521Z,0
2016-09-24T00:07:25.018Z,0
2016-09-24T00:08:25.230Z,0
2016-09-24T00:09:26.193Z,0
2016-09-24T00:10:26.562Z,0
2016-09-24T00:11:27.038Z,0
2016-09-24T00:12:27.083Z,0
2016-09-24T00:13:27.600Z,0
2016-09-24T00:14:28.523Z,0
2016-09-24T00:15:28.868Z,0
2016-09-24T00:16:29.220Z,0
2016-09-24T00:17:29.591Z,0
2016-09-24T00:18:30.514Z,0
2016-09-24T00:19:32.829Z,0
2016-09-24T00:20:31.091Z,0
2016-09-24T00:21:31.725Z,0
2016-09-24T00:22:32.063Z,0
2016-09-24T00:23:32.876Z,0
2016-09-24T00:24:33.218Z,0
2016-09-24T00:25:34.183Z,0
2016-09-24T00:26:34.216Z,0
2016-09-24T00:27:34.882Z,0
2016-09-24T00:28:35.215Z,0
2016-09-24T00:29:35.715Z,0
2016-09-24T00:30:36.511Z,0
2016-09-24T00:31:36.860Z,0
2016-09-24T00:32:37.090Z,0
2016-09-24T00:33:37.858Z,0
2016-09-24T00:34:38.507Z,0
2016-09-24T00:35:38.734Z,0
2016-09-24T00:36:39.657Z,0
2016-09-24T00:37:40.014Z,0
2016-09-24T00:38:40.361Z,0
2016-09-24T00:39:40.705Z,0
2016-09-24T00:40:41.503Z,0
2016-09-24T00:41:41.703Z,0
2016-09-24T00:42:42.365Z,0
2016-09-24T00:43:42.712Z,0
2016-09-24T00:44:43.085Z,0
2016-09-24T00:45:43.864Z,0
2016-09-24T00:46:44.366Z,0
2016-09-24T00:47:44.877Z,0
2016-09-24T00:48:45.388Z,0
2016-09-24T00:49:46.335Z,0
2016-09-24T00:50:46.072Z,0
2016-09-24T00:51:47.172Z,0
2016-09-24T00:52:47.385Z,0
2016-09-24T00:53:47.895Z,0
2016-09-24T00:54:48.227Z,0
2016-09-24T00:55:48.720Z,0
2016-09-24T00:56:50.134Z,0
2016-09-24T00:57:49.615Z,0
2016-09-24T00:58:49.931Z,0
2016-09-24T00:59:50.887Z,0
2016-09-24T01:00:51.524Z,0
2016-09-24T01:01:51.774Z,0
2016-09-24T01:02:52.232Z,0
2016-09-24T01:03:53.176Z,0
2016-09-24T01:04:53.224Z,0
2016-09-24T01:05:53.915Z,0
2016-09-24T01:06:54.231Z,0
2016-09-24T01:07:54.901Z,0
2016-09-24T01:08:55.682Z,0
2016-09-24T01:09:55.750Z,0
2016-09-24T01:10:55.937Z,0
2016-09-24T01:11:56.872Z,0
2016-09-24T01:12:57.369Z,0
2016-09-24T01:13:58.019Z,0
2016-09-24T01:14:58.377Z,0
2016-09-24T01:15:58.569Z,0
2016-09-24T01:16:59.681Z,0
2016-09-24T01:17:59.419Z,0
2016-09-24T01:19:00.521Z,0
2016-09-24T01:20:00.570Z,0
2016-09-24T01:21:01.571Z,0
2016-09-24T01:22:01.737Z,0
2016-09-24T01:23:02.395Z,0
2016-09-24T01:24:02.899Z,0
2016-09-24T01:25:03.253Z,0
2016-09-24T01:26:03.732Z,0
2016-09-24T01:27:04.377Z,0
2016-09-24T01:28:04.747Z,0
2016-09-24T01:29:05.172Z,0
2016-09-24T01:30:05.722Z,0
2016-09-24T01:31:06.396Z,0
2016-09-24T01:32:06.761Z,0
2016-09-24T01:33:06.944Z,0
2016-09-24T01:34:07.717Z,0
2016-09-24T01:35:08.815Z,0
2016-09-24T01:36:08.919Z,0
2016-09-24T01:37:09.226Z,0
2016-09-24T01:38:09.463Z,0
2016-09-24T01:39:10.216Z,0
2016-09-24T01:40:10.906Z,0
2016-09-24T01:41:11.223Z,0
2016-09-24T01:42:11.564Z,0
2016-09-24T01:43:12.667Z,0
2016-09-24T01:44:12.456Z,0
2016-09-24T01:45:13.403Z,0
2016-09-24T01:46:13.416Z,0
2016-09-24T01:47:14.532Z,0
2016-09-24T01:48:14.739Z,0
2016-09-24T01:49:15.399Z,0
2016-09-24T01:50:15.882Z,0
2016-09-24T01:51:16.375Z,0
2016-09-24T01:52:16.725Z,0
2016-09-24T01:53:19.630Z,0
2016-09-24T01:54:17.717Z,0
2016-09-24T01:55:17.906Z,0
2016-09-24T01:56:18.566Z,0
2016-09-24T01:57:19.534Z,0
2016-09-24T01:58:20.157Z,0
2016-09-24T01:59:20.391Z,0
2016-09-24T02:00:20.566Z,0
2016-09-24T02:01:21.664Z,0
2016-09-24T02:02:22.177Z,0
2016-09-24T02:03:22.087Z,0
2016-09-24T02:04:22.873Z,0
2016-09-24T02:05:23.531Z,0
2016-09-24T02:06:24.042Z,0
2016-09-24T02:07:24.369Z,0
2016-09-24T02:08:25.266Z,0
2016-09-24T02:09:25.089Z,0
2016-09-24T02:10:25.719Z,0
2016-09-24T02:11:26.218Z,0
2016-09-24T02:12:26.717Z,0
2016-09-24T02:13:27.222Z,0
2016-09-24T02:14:27.871Z,0
2016-09-24T02:15:28.522Z,0
2016-09-24T02:16:29.041Z,0
2016-09-24T02:17:29.668Z,0
2016-09-24T02:18:30.029Z,0
2016-09-24T02:19:30.554Z,0
2016-09-24T02:20:31.056Z,0
2016-09-24T02:21:31.246Z,0
2016-09-24T02:22:31.742Z,0
2016-09-24T02:23:32.667Z,0
2016-09-24T02:24:32.582Z,0
2016-09-24T02:25:33.373Z,0
2016-09-24T02:26:33.872Z,0
2016-09-24T02:27:34.369Z,0
2016-09-24T02:28:35.025Z,0
2016-09-24T02:29:35.524Z,0
2016-09-24T02:30:35.871Z,0
2016-09-24T02:31:36.232Z,0
2016-09-24T02:32:36.866Z,0
2016-09-24T02:33:37.247Z,0
2016-09-24T02:34:37.740Z,0
2016-09-24T02:35:38.367Z,0
2016-09-24T02:36:38.724Z,0
2016-09-24T02:37:39.086Z,0
2016-09-24T02:38:39.628Z,0
2016-09-24T02:39:40.529Z,0
2016-09-24T02:40:42.855Z,0
2016-09-24T02:41:41.561Z,0
2016-09-24T02:42:42.074Z,0
2016-09-24T02:43:42.229Z,0
2016-09-24T02:44:42.727Z,0
2016-09-24T02:45:43.522Z,0
2016-09-24T02:46:44.318Z,0
2016-09-24T02:47:44.972Z,0
2016-09-24T02:48:44.888Z,0
2016-09-24T02:49:45.369Z,0
2016-09-24T02:50:46.061Z,0
2016-09-24T02:51:46.257Z,0
2016-09-24T02:52:47.167Z,0
2016-09-24T02:53:47.819Z,0
2016-09-24T02:54:48.025Z,0
2016-09-24T02:55:48.542Z,0
2016-09-24T02:56:48.920Z,0
2016-09-24T02:57:49.667Z,0
2016-09-24T02:58:49.879Z,0
2016-09-24T02:59:50.221Z,0
2016-09-24T03:00:51.017Z,0
2016-09-24T03:01:51.121Z,0
2016-09-24T03:02:51.725Z,0
2016-09-24T03:03:52.065Z,0
2016-09-24T03:04:52.870Z,0
2016-09-24T03:05:53.839Z,0
2016-09-24T03:06:53.733Z,0
2016-09-24T03:07:54.217Z,0
2016-09-24T03:08:54.864Z,0
2016-09-24T03:09:55.516Z,0
2016-09-24T03:10:57.372Z,0
2016-09-24T03:11:56.248Z,0
2016-09-24T03:12:56.908Z,0
2016-09-24T03:13:57.415Z,0
2016-09-24T03:14:57.734Z,0
2016-09-24T03:15:58.555Z,0
2016-09-24T03:16:58.448Z,0
2016-09-24T03:17:59.550Z,0
2016-09-24T03:18:59.718Z,0
2016-09-24T03:20:00.248Z,0
2016-09-24T03:21:01.027Z,0
2016-09-24T03:22:01.228Z,0
2016-09-24T03:23:01.620Z,0
2016-09-24T03:24:02.386Z,0
2016-09-24T03:25:03.190Z,0
2016-09-24T03:26:03.666Z,0
2016-09-24T03:27:03.890Z,0
2016-09-24T03:28:04.695Z,0
2016-09-24T03:29:04.569Z,0
2016-09-24T03:30:05.226Z,0
2016-09-24T03:31:05.732Z,0
2016-09-24T03:32:06.522Z,0
2016-09-24T03:33:07.052Z,0
2016-09-24T03:34:07.245Z,0
2016-09-24T03:35:08.023Z,0
2016-09-24T03:36:08.424Z,0
2016-09-24T03:37:08.721Z,0
2016-09-24T03:38:09.364Z,0
2016-09-24T03:39:10.178Z,0
2016-09-24T03:40:10.244Z,0
2016-09-24T03:41:10.884Z,0
2016-09-24T03:42:11.414Z,0
2016-09-24T03:43:11.716Z,0
2016-09-24T03:44:12.664Z,0
2016-09-24T03:45:12.866Z,0
2016-09-24T03:46:13.063Z,0
2016-09-24T03:47:13.869Z,0
2016-09-24T03:48:14.363Z,0
2016-09-24T03:49:14.906Z,0
2016-09-24T03:50:15.539Z,0
2016-09-24T03:51:15.890Z,0
2016-09-24T03:52:16.670Z,0
2016-09-24T03:53:16.890Z,0
2016-09-24T03:54:17.372Z,0
2016-09-24T03:55:17.734Z,0
2016-09-24T03:56:18.247Z,0
2016-09-24T03:57:18.743Z,0
2016-09-24T03:58:19.235Z,0
2016-09-24T03:59:21.374Z,0
2016-09-24T04:00:20.220Z,0
2016-09-24T04:01:21.315Z,0
2016-09-24T04:02:21.366Z,0
2016-09-24T04:03:21.719Z,0
2016-09-24T04:04:22.669Z,0
2016-09-24T04:05:22.869Z,0
2016-09-24T04:06:23.219Z,0
2016-09-24T04:07:23.733Z,0
2016-09-24T04:08:24.223Z,0
2016-09-24T04:09:24.719Z,0
2016-09-24T04:10:25.222Z,0
2016-09-24T04:11:26.009Z,0
2016-09-24T04:12:26.512Z,0
2016-09-24T04:13:26.577Z,0
2016-09-24T04:14:27.363Z,0
2016-09-24T04:15:28.203Z,0
2016-09-24T04:16:28.356Z,0
2016-09-24T04:17:29.781Z,0
2016-09-24T04:18:29.656Z,0
2016-09-24T04:19:29.885Z,0
2016-09-24T04:20:30.685Z,0
2016-09-24T04:21:30.884Z,0
2016-09-24T04:22:31.669Z,0
2016-09-24T04:23:31.859Z,0
2016-09-24T04:24:31.932Z,0
2016-09-24T04:25:33.029Z,0
2016-09-24T04:26:33.062Z,0
2016-09-24T04:27:34.013Z,0
2016-09-24T04:28:34.233Z,0
2016-09-24T04:29:34.738Z,0
2016-09-24T04:30:35.236Z,0
2016-09-24T04:31:36.017Z,0
2016-09-24T04:32:36.517Z,0
2016-09-24T04:33:36.719Z,0
2016-09-24T04:34:37.815Z,0
2016-09-24T04:35:38.030Z,0
2016-09-24T04:36:38.234Z,0
2016-09-24T04:37:38.451Z,0
2016-09-24T04:38:39.069Z,0
2016-09-24T04:39:39.885Z,0
2016-09-24T04:40:40.218Z,0
2016-09-24T04:41:41.478Z,0
2016-09-24T04:42:41.369Z,0
2016-09-24T04:43:41.597Z,0
2016-09-24T04:44:42.106Z,0
2016-09-24T04:45:42.724Z,0
2016-09-24T04:46:43.240Z,0
2016-09-24T04:47:43.730Z,0
2016-09-24T04:48:44.516Z,0
2016-09-24T04:49:44.445Z,0
2016-09-24T04:50:45.372Z,0
2016-09-24T04:51:45.882Z,0
2016-09-24T04:52:46.371Z,0
2016-09-24T04:53:46.715Z,0
2016-09-24T04:54:47.363Z,0
2016-09-24T04:55:48.032Z,0
2016-09-24T04:56:48.367Z,0
2016-09-24T04:57:48.730Z,0
2016-09-24T04:58:49.663Z,0
2016-09-24T04:59:49.745Z,0
2016-09-24T05:00:50.363Z,0
2016-09-24T05:01:51.795Z,0
2016-09-24T05:02:51.089Z,0
2016-09-24T05:03:51.602Z,0
2016-09-24T05:04:52.272Z,0
2016-09-24T05:05:52.775Z,0
2016-09-24T05:06:53.549Z,0
2016-09-24T05:07:53.438Z,0
2016-09-24T05:08:54.380Z,0
2016-09-24T05:09:55.030Z,0
2016-09-24T05:10:55.546Z,0
2016-09-24T05:11:56.029Z,0
2016-09-24T05:12:56.080Z,0
2016-09-24T05:13:56.572Z,0
2016-09-24T05:14:57.364Z,0
2016-09-24T05:15:57.866Z,0
2016-09-24T05:16:58.089Z,0
2016-09-24T05:17:58.872Z,0
2016-09-24T05:18:59.364Z,0
2016-09-24T05:20:00.318Z,0
2016-09-24T05:21:00.536Z,0
2016-09-24T05:22:01.015Z,0
2016-09-24T05:23:01.361Z,0
2016-09-24T05:24:02.011Z,0
2016-09-24T05:25:02.372Z,0
2016-09-24T05:26:02.866Z,0
2016-09-24T05:27:04.569Z,0
2016-09-24T05:28:03.861Z,0
2016-09-24T05:29:04.371Z,0
2016-09-24T05:30:04.914Z,0
2016-09-24T05:31:05.204Z,0
2016-09-24T05:32:08.260Z,0
2016-09-24T05:33:06.085Z,0
2016-09-24T05:34:06.715Z,0
2016-09-24T05:35:07.049Z,0
2016-09-24T05:36:08.012Z,0
2016-09-24T05:37:08.948Z,0
2016-09-24T05:38:08.721Z,0
2016-09-24T05:39:09.354Z,0
2016-09-24T05:40:09.555Z,0
2016-09-24T05:41:09.937Z,0
2016-09-24T05:42:10.731Z,0
2016-09-24T05:43:11.213Z,0
2016-09-24T05:44:11.888Z,0
2016-09-24T05:45:12.368Z,0
2016-09-24T05:46:12.761Z,0
2016-09-24T05:47:15.612Z,0
2016-09-24T05:48:13.868Z,0
2016-09-24T05:49:14.509Z,0
2016-09-24T05:50:15.177Z,0
2016-09-24T05:51:15.210Z,14
2016-09-24T05:52:16.166Z,14
2016-09-24T05:53:16.067Z,15
2016-09-24T05:54:16.730Z,16
2016-09-24T05:55:17.667Z,18
2016-09-24T05:56:17.710Z,16
2016-09-24T05:57:18.090Z,23
2016-09-24T05:58:18.888Z,24
2016-09-24T05:59:19.079Z,24
2016-09-24T06:00:20.155Z,23
2016-09-24T06:01:20.540Z,27
2016-09-24T06:02:20.710Z,25
2016-09-24T06:03:21.506Z,25
2016-09-24T06:04:22.156Z,25
2016-09-24T06:05:22.507Z,25
2016-09-24T06:06:23.163Z,28
2016-09-24T06:07:23.359Z,29
2016-09-24T06:08:24.005Z,30
2016-09-24T06:09:24.408Z,28
2016-09-24T06:10:24.868Z,29
2016-09-24T06:11:24.906Z,28
2016-09-24T06:12:25.704Z,28
2016-09-24T06:13:26.069Z,0
2016-09-24T06:14:26.860Z,0
2016-09-24T06:15:27.511Z,0
2016-09-24T06:16:27.407Z,0
2016-09-24T06:17:29.726Z,0
2016-09-24T06:18:28.583Z,0
2016-09-24T06:19:29.363Z,0
2016-09-24T06:20:29.715Z,0
2016-09-24T06:21:30.368Z,0
2016-09-24T06:22:30.743Z,0
2016-09-24T06:23:31.214Z,0
2016-09-24T06:24:31.725Z,0
2016-09-24T06:25:32.241Z,0
2016-09-24T06:26:32.726Z,0
2016-09-24T06:27:32.931Z,0
2016-09-24T06:28:33.878Z,0
2016-09-24T06:29:34.526Z,0
2016-09-24T06:30:34.620Z,0
2016-09-24T06:31:35.512Z,0
2016-09-24T06:32:36.194Z,0
2016-09-24T06:33:36.513Z,0
2016-09-24T06:34:36.722Z,0
2016-09-24T06:35:37.208Z,0
2016-09-24T06:36:37.875Z,0
2016-09-24T06:37:38.525Z,0
2016-09-24T06:38:39.307Z,0
2016-09-24T06:39:39.360Z,0
2016-09-24T06:40:40.015Z,122
2016-09-24T06:41:40.357Z,119
2016-09-24T06:42:40.709Z,127
2016-09-24T06:43:41.376Z,131
2016-09-24T06:44:41.856Z,119
2016-09-24T06:45:42.376Z,108
2016-09-24T06:46:43.004Z,115
2016-09-24T06:47:43.083Z,112
2016-09-24T06:48:44.003Z,127
2016-09-24T06:49:44.504Z,118
2016-09-24T06:50:44.855Z,110
2016-09-24T06:51:45.230Z,115
2016-09-24T06:52:45.551Z,121
2016-09-24T06:53:46.203Z,118
2016-09-24T06:54:46.713Z,125
2016-09-24T06:55:47.361Z,130
2016-09-24T06:56:47.859Z,129
2016-09-24T06:57:48.212Z,146
2016-09-24T06:58:48.712Z,145
2016-09-24T06:59:49.545Z,179
2016-09-24T07:00:49.615Z,153
2016-09-24T07:01:52.323Z,154
2016-09-24T07:02:50.728Z,158
2016-09-24T07:03:51.534Z,171
2016-09-24T07:04:51.728Z,184
2016-09-24T07:05:52.392Z,172
2016-09-24T07:06:53.009Z,177
2016-09-24T07:09:47.734Z,150
2016-09-24T07:10:48.089Z,183
2016-09-24T07:11:48.596Z,170
2016-09-24T07:12:49.248Z,141
2016-09-24T07:13:49.455Z,146
2016-09-24T07:14:51.750Z,141
2016-09-24T07:15:50.753Z,130
2016-09-24T07:16:51.253Z,122
2016-09-24T07:17:51.751Z,138
2016-09-24T07:18:53.154Z,154
2016-09-24T07:19:52.761Z,146
2016-09-24T07:20:53.252Z,164
2016-09-24T07:21:53.757Z,147
2016-09-24T07:22:54.255Z,139
2016-09-24T07:23:54.636Z,157
2016-09-24T07:24:54.073Z,181
2016-09-24T07:25:55.326Z,173
2016-09-24T07:26:55.072Z,190
2016-09-24T07:27:55.733Z,260
2016-09-24T07:28:56.362Z,265
2016-09-24T07:29:57.199Z,239
2016-09-24T07:30:57.115Z,208
2016-09-24T07:31:57.570Z,269
2016-09-24T07:32:58.674Z,285
2016-09-24T07:34:00.388Z,307
2016-09-24T07:36:00.784Z,259
2016-09-24T07:37:00.680Z,269
2016-09-24T07:38:00.754Z,242
2016-09-24T07:39:01.380Z,254
2016-09-24T07:40:01.619Z,252
2016-09-24T07:41:02.537Z,336
2016-09-24T07:43:03.381Z,353
2016-09-24T07:44:04.179Z,299
2016-09-24T07:45:05.459Z,354
2016-09-24T07:46:04.728Z,388
2016-09-24T07:47:05.239Z,389
2016-09-24T07:48:06.027Z,386
2016-09-24T07:49:06.229Z,389
2016-09-24T07:50:06.879Z,377
2016-09-24T07:51:07.532Z,389
2016-09-24T07:52:07.751Z,319
2016-09-24T07:53:08.230Z,392
2016-09-24T07:54:08.724Z,358
2016-09-24T07:55:08.945Z,405
2016-09-24T07:56:09.600Z,402
2016-09-24T07:57:10.272Z,401
2016-09-24T07:58:10.473Z,362
2016-09-24T07:59:11.134Z,409
2016-09-24T08:00:11.501Z,405
2016-09-24T08:01:12.038Z,414
2016-09-24T08:02:12.523Z,417
2016-09-24T08:03:13.031Z,392
2016-09-24T08:04:13.548Z,423
2016-09-24T08:05:14.063Z,304
2016-09-24T08:06:14.574Z,278
2016-09-24T08:07:15.090Z,323
2016-09-24T08:08:15.603Z,451
2016-09-24T08:09:16.124Z,466
2016-09-24T08:10:16.637Z,448
2016-09-24T08:11:17.157Z,451
2016-09-24T08:12:17.669Z,460
2016-09-24T08:13:18.180Z,457
2016-09-24T08:14:18.845Z,457
2016-09-24T08:15:19.354Z,457
2016-09-24T08:16:20.037Z,468
2016-09-24T08:17:20.231Z,474
2016-09-24T08:18:20.741Z,480
2016-09-24T08:19:23.196Z,489
2016-09-24T08:20:22.046Z,487
2016-09-24T08:21:22.548Z,489
2016-09-24T08:22:23.345Z,500
2016-09-24T08:23:23.442Z,502
2016-09-24T08:24:24.222Z,511
2016-09-24T08:25:24.853Z,514
2016-09-24T08:26:24.931Z,516
2016-09-24T08:27:25.259Z,520
2016-09-24T08:28:25.770Z,516
2016-09-24T08:29:26.286Z,518
2016-09-24T08:30:26.963Z,523
2016-09-24T08:31:27.313Z,526
2016-09-24T08:32:29.476Z,518
2016-09-24T08:33:28.331Z,509
2016-09-24T08:34:28.846Z,511
2016-09-24T08:35:29.508Z,529
2016-09-24T08:36:29.869Z,534
2016-09-24T08:37:30.408Z,350
2016-09-24T08:38:30.891Z,545
2016-09-24T08:39:31.408Z,548
2016-09-24T08:40:31.913Z,545
2016-09-24T08:41:32.427Z,551
2016-09-24T08:42:33.094Z,562
2016-09-24T08:43:33.459Z,566
2016-09-24T08:44:33.973Z,572
2016-09-24T08:45:34.487Z,563
2016-09-24T08:46:35.003Z,556
2016-09-24T08:47:38.360Z,515
2016-09-24T08:48:36.177Z,529
2016-09-24T08:49:37.729Z,570
2016-09-24T08:50:37.176Z,581
2016-09-24T08:51:38.158Z,582
2016-09-24T08:52:38.493Z,587
2016-09-24T08:53:38.848Z,588
2016-09-24T08:54:39.207Z,574
2016-09-24T08:55:39.697Z,544
2016-09-24T08:56:40.640Z,569
2016-09-24T08:57:40.846Z,555
2016-09-24T08:58:41.189Z,550
2016-09-24T08:59:42.587Z,586
2016-09-24T09:00:42.505Z,596
2016-09-24T09:01:43.131Z,593
2016-09-24T09:02:43.356Z,593
2016-09-24T09:03:43.872Z,603
2016-09-24T09:04:44.332Z,598
2016-09-24T09:05:44.838Z,574
2016-09-24T09:06:45.202Z,588
2016-09-24T09:07:45.980Z,592
2016-09-24T09:08:46.334Z,602
2016-09-24T09:09:46.981Z,601
2016-09-24T09:10:47.031Z,612
2016-09-24T09:11:47.834Z,599
2016-09-24T09:12:48.495Z,601
2016-09-24T09:13:48.533Z,596
2016-09-24T09:14:49.508Z,613
2016-09-24T09:15:49.986Z,613
2016-09-24T09:16:50.511Z,621
2016-09-24T09:17:50.688Z,613
2016-09-24T09:18:51.335Z,616
2016-09-24T09:19:51.835Z,622
2016-09-24T09:20:52.361Z,628
2016-09-24T09:21:52.982Z,638
2016-09-24T09:22:53.649Z,604
2016-09-24T09:23:53.842Z,595
2016-09-24T09:24:54.642Z,629
2016-09-24T09:25:54.995Z,650
2016-09-24T09:26:55.348Z,661
2016-09-24T09:27:55.560Z,656
2016-09-24T09:28:56.348Z,651
2016-09-24T09:29:56.849Z,648
2016-09-24T09:30:57.383Z,644
2016-09-24T09:31:57.577Z,648
2016-09-24T09:32:58.201Z,653
2016-09-24T09:33:59.021Z,662
2016-09-24T09:34:59.510Z,652
2016-09-24T09:36:00.000Z,654
2016-09-24T09:37:01.729Z,659
2016-09-24T09:38:00.703Z,657
2016-09-24T09:39:01.517Z,666
2016-09-24T09:40:02.003Z,666
2016-09-24T09:41:02.659Z,664
2016-09-24T09:42:03.006Z,675
2016-09-24T09:43:03.680Z,670
2016-09-24T09:44:03.722Z,673
2016-09-24T09:45:04.378Z,666
2016-09-24T09:46:04.858Z,663
2016-09-24T09:47:05.812Z,662
2016-09-24T09:48:05.857Z,654
2016-09-24T09:49:06.382Z,665
2016-09-24T09:50:07.032Z,669
2016-09-24T09:51:07.356Z,680
2016-09-24T09:52:07.870Z,692
2016-09-24T09:53:08.531Z,690
2016-09-24T09:54:09.174Z,693
2016-09-24T09:55:09.216Z,695
2016-09-24T09:56:10.025Z,697
2016-09-24T09:57:10.653Z,685
2016-09-24T09:58:11.002Z,691
2016-09-24T09:59:11.545Z,713
2016-09-24T10:00:12.009Z,710
2016-09-24T10:01:12.510Z,712
2016-09-24T10:02:13.189Z,714
2016-09-24T10:03:13.363Z,722
2016-09-24T10:04:13.578Z,723
2016-09-24T10:05:14.094Z,720
2016-09-24T10:06:14.620Z,731
2016-09-24T10:07:16.625Z,729
2016-09-24T10:08:15.637Z,729
2016-09-24T10:09:16.148Z,729
2016-09-24T10:10:16.666Z,730
2016-09-24T10:11:17.183Z,735
2016-09-24T10:12:17.703Z,734
2016-09-24T10:13:18.351Z,742
2016-09-24T10:14:18.858Z,736
2016-09-24T10:15:19.239Z,739
2016-09-24T10:16:19.740Z,735
2016-09-24T10:17:20.401Z,588
2016-09-24T10:18:20.770Z,720
2016-09-24T10:19:21.430Z,744
2016-09-24T10:20:21.788Z,743
2016-09-24T10:21:22.303Z,739
2016-09-24T10:22:22.814Z,741
2016-09-24T10:23:23.479Z,743
2016-09-24T10:24:24.012Z,746
2016-09-24T10:25:24.504Z,749
2016-09-24T10:26:24.874Z,750
2016-09-24T10:47:19.003Z,0
2016-09-24T10:48:19.645Z,754
2016-09-24T10:49:19.870Z,772
2016-09-24T10:50:20.363Z,766
2016-09-24T10:51:21.474Z,779
2016-09-24T10:52:21.842Z,745
2016-09-24T10:53:22.783Z,738
2016-09-24T10:54:22.818Z,749
2016-09-24T10:55:24.683Z,659
2016-09-24T10:56:23.674Z,745
2016-09-24T10:57:24.193Z,760
2016-09-24T10:58:24.837Z,767
2016-09-24T10:59:25.014Z,778
2016-09-24T11:00:25.523Z,790
2016-09-24T11:01:26.039Z,772
2016-09-24T11:02:26.813Z,774
2016-09-24T11:03:27.502Z,755
2016-09-24T11:04:27.693Z,762
2016-09-24T11:05:28.322Z,725
2016-09-24T11:06:28.815Z,754
2016-09-24T11:07:29.016Z,745
2016-09-24T11:08:30.004Z,737
2016-09-24T11:09:30.464Z,733
2016-09-24T11:10:30.811Z,783
2016-09-24T11:11:32.830Z,770
2016-09-24T11:12:31.680Z,778
2016-09-24T11:13:32.311Z,772
2016-09-24T11:14:32.837Z,762
2016-09-24T11:15:33.617Z,766
2016-09-24T11:16:33.819Z,769
2016-09-24T11:17:34.323Z,777
2016-09-24T11:18:35.118Z,773
2016-09-24T11:19:35.322Z,763
2016-09-24T11:20:35.842Z,771
2016-09-24T11:21:36.212Z,751
2016-09-24T11:22:36.543Z,773
2016-09-24T11:23:37.178Z,781
2016-09-24T11:24:37.673Z,775
2016-09-24T11:25:38.175Z,778
2016-09-24T11:26:38.394Z,775
2016-09-24T11:27:38.898Z,773
2016-09-24T11:28:39.537Z,769
2016-09-24T11:29:40.321Z,769
2016-09-24T11:30:41.140Z,694
2016-09-24T11:31:41.481Z,204
2016-09-24T11:32:41.998Z,700
2016-09-24T11:33:42.184Z,264
2016-09-24T11:34:42.814Z,622
2016-09-24T11:35:43.466Z,753
2016-09-24T11:36:43.688Z,769
2016-09-24T11:37:44.172Z,257
2016-09-24T11:38:44.990Z,240
2016-09-24T11:39:45.474Z,238
2016-09-24T11:40:45.852Z,271
2016-09-24T11:41:46.012Z,685
2016-09-24T11:42:46.811Z,766
2016-09-24T11:43:47.310Z,781
2016-09-24T11:44:47.805Z,773
2016-09-24T11:45:48.314Z,289
2016-09-24T11:46:48.710Z,319
2016-09-24T11:47:49.474Z,342
2016-09-24T11:48:49.352Z,772
2016-09-24T11:49:50.618Z,346
2016-09-24T11:50:50.820Z,770
2016-09-24T11:51:51.761Z,894
2016-09-24T11:52:51.989Z,846
2016-09-24T11:53:52.497Z,441
2016-09-24T11:54:52.845Z,421
2016-09-24T11:55:53.347Z,424
2016-09-24T11:56:53.692Z,729
2016-09-24T11:57:54.020Z,899
2016-09-24T11:58:54.669Z,902
2016-09-24T11:59:56.214Z,847
2016-09-24T12:00:55.823Z,629
2016-09-24T12:01:56.342Z,459
2016-09-24T12:02:56.688Z,341
2016-09-24T12:03:57.487Z,372
2016-09-24T12:04:57.827Z,713
2016-09-24T12:05:58.181Z,837
2016-09-24T12:06:58.695Z,840
2016-09-24T12:07:59.183Z,325
2016-09-24T12:08:59.526Z,466
2016-09-24T12:10:00.164Z,334
2016-09-24T12:11:00.814Z,300
2016-09-24T12:12:01.168Z,295
2016-09-24T12:13:01.956Z,307
2016-09-24T12:14:02.185Z,320
2016-09-24T12:15:02.955Z,334
2016-09-24T12:16:03.605Z,331
2016-09-24T12:17:03.820Z,309
2016-09-24T12:18:04.452Z,303
2016-09-24T12:19:04.676Z,295
2016-09-24T12:20:05.172Z,570
2016-09-24T12:21:05.678Z,762
2016-09-24T12:22:06.454Z,272
2016-09-24T12:23:06.669Z,246
2016-09-24T12:24:06.863Z,702
2016-09-24T12:25:07.378Z,283
2016-09-24T12:26:08.325Z,415
2016-09-24T12:27:08.799Z,808
2016-09-24T12:28:09.333Z,804
2016-09-24T12:29:09.830Z,550
2016-09-24T12:30:11.360Z,791
2016-09-24T12:31:10.669Z,770
2016-09-24T12:32:11.024Z,719
2016-09-24T12:33:11.952Z,724
2016-09-24T12:34:12.007Z,733
2016-09-24T12:35:12.534Z,291
2016-09-24T12:36:13.328Z,281
2016-09-24T12:37:13.368Z,672
2016-09-24T12:38:14.154Z,709
2016-09-24T12:39:14.951Z,439
2016-09-24T12:40:14.999Z,700
2016-09-24T12:41:15.950Z,666
2016-09-24T12:42:16.352Z,668
2016-09-24T12:43:16.505Z,674
2016-09-24T12:44:17.476Z,650
2016-09-24T12:45:18.256Z,701
2016-09-24T12:46:18.164Z,697
2016-09-24T12:47:18.943Z,698
2016-09-24T12:48:20.524Z,720
2016-09-24T12:49:19.662Z,722
2016-09-24T12:50:20.308Z,436
2016-09-24T12:51:20.507Z,579
2016-09-24T12:52:21.169Z,488
2016-09-24T12:53:21.868Z,286
2016-09-24T12:54:22.191Z,508
2016-09-24T12:55:22.955Z,620
2016-09-24T12:56:23.142Z,331
2016-09-24T12:57:23.490Z,672
2016-09-24T12:58:24.142Z,350
2016-09-24T12:59:24.962Z,647
2016-09-24T13:00:25.294Z,591
2016-09-24T13:01:25.496Z,633
2016-09-24T13:02:25.989Z,572
2016-09-24T13:03:26.942Z,640
2016-09-24T13:04:27.179Z,640
2016-09-24T13:05:27.787Z,648
2016-09-24T13:06:28.146Z,660
2016-09-24T13:07:28.804Z,638
2016-09-24T13:08:29.015Z,637
2016-09-24T13:09:29.499Z,635
2016-09-24T13:10:30.306Z,516
2016-09-24T13:11:30.651Z,654
2016-09-24T13:12:31.299Z,643
2016-09-24T13:13:31.807Z,625
2016-09-24T13:14:32.441Z,643
2016-09-24T13:15:32.821Z,641
2016-09-24T13:16:33.328Z,630
2016-09-24T13:17:33.816Z,416
2016-09-24T13:18:34.764Z,583
2016-09-24T13:19:34.790Z,590
2016-09-24T13:20:34.981Z,595
2016-09-24T13:21:35.933Z,611
2016-09-24T13:22:36.010Z,616
2016-09-24T13:23:36.633Z,222
2016-09-24T13:24:37.155Z,338
2016-09-24T13:25:37.649Z,360
2016-09-24T13:26:38.278Z,598
2016-09-24T13:27:38.936Z,599
2016-09-24T13:28:39.007Z,613
2016-09-24T13:29:40.076Z,673
2016-09-24T13:30:40.310Z,662
2016-09-24T13:31:40.653Z,444
2016-09-24T13:32:41.726Z,628
2016-09-24T13:33:41.944Z,618
2016-09-24T13:34:42.571Z,618
2016-09-24T13:35:42.938Z,630
2016-09-24T13:36:43.308Z,531
2016-09-24T13:37:44.082Z,471
2016-09-24T13:38:43.825Z,442
2016-09-24T13:39:44.337Z,563
2016-09-24T13:40:44.840Z,583
2016-09-24T13:52:20.560Z,538
2016-09-24T13:53:51.515Z,533
2016-09-24T13:54:51.875Z,530
2016-09-24T13:55:52.390Z,529
2016-09-24T13:56:52.895Z,534
2016-09-24T13:57:53.552Z,534
2016-09-24T13:58:54.065Z,536
2016-09-24T13:59:54.577Z,531
2016-09-24T14:00:54.938Z,543
2016-09-24T14:01:55.453Z,544
2016-09-24T14:02:55.962Z,511
2016-09-24T14:03:56.479Z,500
2016-09-24T14:04:56.986Z,504
2016-09-24T14:05:58.099Z,511
2016-09-24T14:06:58.156Z,495
2016-09-24T14:07:58.533Z,496
2016-09-24T14:08:59.176Z,489
2016-09-24T14:09:59.990Z,486
2016-09-24T14:11:00.379Z,473
2016-09-24T14:12:01.123Z,464
2016-09-24T14:13:01.476Z,462
2016-09-24T14:14:01.986Z,458
2016-09-24T14:15:02.775Z,453
2016-09-24T14:16:03.268Z,443
2016-09-24T14:17:03.311Z,440
2016-09-24T14:18:03.981Z,440
2016-09-24T14:19:04.378Z,439
2016-09-24T14:20:04.845Z,438
2016-09-24T14:21:05.327Z,435
2016-09-24T14:22:06.127Z,422
2016-09-24T14:23:06.478Z,418
2016-09-24T14:24:09.075Z,416
2016-09-24T14:25:07.343Z,410
2016-09-24T14:26:08.289Z,411
2016-09-24T14:27:09.073Z,406
2016-09-24T14:28:09.295Z,398
2016-09-24T14:29:09.483Z,407
2016-09-24T14:30:10.128Z,405
2016-09-24T14:31:10.646Z,418
2016-09-24T14:32:11.124Z,419
2016-09-24T14:33:11.490Z,412
2016-09-24T14:34:11.978Z,413
2016-09-24T14:35:12.501Z,403
2016-09-24T14:36:12.694Z,389
2016-09-24T14:37:13.629Z,388
2016-09-24T14:38:13.695Z,362
2016-09-24T14:39:14.486Z,345
2016-09-24T14:40:15.280Z,354
2016-09-24T14:41:15.495Z,364
2016-09-24T14:42:16.139Z,358
2016-09-24T14:43:16.369Z,359
2016-09-24T14:44:17.157Z,356
2016-09-24T14:45:17.796Z,351
2016-09-24T14:46:18.274Z,354
2016-09-24T14:47:18.341Z,350
2016-09-24T14:48:19.126Z,305
2016-09-24T14:49:19.343Z,295
2016-09-24T14:50:20.127Z,302
2016-09-24T14:51:20.625Z,312
2016-09-24T14:52:20.677Z,153
2016-09-24T14:53:21.490Z,141
2016-09-24T14:54:23.329Z,144